West Townshend, VT (05359)

9:35 AM EST on February 10, 2016 (GMT -0500)
Harmonyville | | Change Station
CLOSE
Current Station
Personal Weather Station
Location: Townshend, VT
Elevation: 463 ft
Nearby Weather Stations

Elev 463 ft 43.03 °N, 72.66 °W | Updated 8 minutes ago

Snow
Snow
27.0 °F
Feels Like 27 °F
N
0.0
Wind Variable Wind from SSW

Today
High -- | Low -- °F
--% Chance of Precip.
Yesterday
High -- | Low -- °F
Precip. -- in
Pressure 29.60 in
Visibility 1.0 miles
Clouds Overcast 2200 ft
Windchill 27 °F
Dew Point 22 °F
Humidity 81%
Rainfall 0.00 in
Snow Depth Not available.
6:55 AM 5:14 PM
Waxing Crescent, 5% visible
METAR KVSF 101354Z AUTO 00000KT 1SM -SN BR OVC022 M06/M07 A2957 RMK AO2 SLP023 P0000 T10561067
Pressure 29.60 in
Visibility 1.0 miles
Clouds Overcast 2200 ft
Windchill 27 °F
Dew Point 22 °F
Humidity 81%
Rainfall 0.00 in
Snow Depth Not available.
6:55 AM 5:14 PM
Waxing Crescent, 5% visible
METAR KVSF 101354Z AUTO 00000KT 1SM -SN BR OVC022 M06/M07 A2957 RMK AO2 SLP023 P0000 T10561067

10-Day Weather Forecast

Almanac

Astronomy

Feb. 10, 2016 Rise Set
Actual Time
Civil Twilight
Nautical Twilight
Astronomical Twilight
Moon
Length of Visible Light
Length of Day
Tomorrow will be .
, % of the Moon is Illuminated

Today's Extremes

State Highs State Lows

Community

WunderPhotos

Upload Photos

1,891,855 photos uploaded!

WunderBlog® & News

Nearby

Air Quality

  Air Quality AQ Index Pollutant
Not available.

Snow Depth

Station Depth Elevation

Earthquake Activity

City Distance Mag. Time & Date
Minimum magnitude displayed is 2.5.

Coastal Water Temperatures

Place Temperature

Stations

Nearby Weather Stations

Station Location Temp. Windchill Dew Point Humidity Wind Precip. Elev Updated Type
                   

Watches & Warnings

There are currently no watches in effect.